createdAt,value
2023-02-13T00:01:33.154Z,17.15
2023-02-13T00:04:19.996Z,16.63
2023-02-13T00:07:10.072Z,17.05
2023-02-13T00:10:05.688Z,15.52
2023-02-13T00:12:55.283Z,16.20
2023-02-13T00:15:42.134Z,13.93
2023-02-13T00:18:30.486Z,14.32
2023-02-13T00:21:29.854Z,16.67
2023-02-13T00:24:16.688Z,14.10
2023-02-13T00:27:03.495Z,15.80
2023-02-13T00:29:50.276Z,15.38
2023-02-13T00:32:37.176Z,15.32
2023-02-13T00:35:30.564Z,14.60
2023-02-13T00:38:17.332Z,17.17
2023-02-13T00:41:07.306Z,17.55
2023-02-13T00:43:54.072Z,15.63
2023-02-13T00:46:40.955Z,16.10
2023-02-13T00:49:27.784Z,16.00
2023-02-13T00:52:14.596Z,14.85
2023-02-13T00:55:01.460Z,15.40
2023-02-13T00:57:50.611Z,14.00
2023-02-13T01:00:40.611Z,14.63
2023-02-13T01:03:34.879Z,15.90
2023-02-13T01:06:21.756Z,16.08
2023-02-13T01:09:08.592Z,15.18
2023-02-13T01:11:56.417Z,14.57
2023-02-13T01:14:43.222Z,16.80
2023-02-13T01:17:30.051Z,14.98
2023-02-13T01:20:16.926Z,15.07
2023-02-13T01:23:07.502Z,14.75
2023-02-13T01:25:54.411Z,15.65
2023-02-13T01:28:46.700Z,16.13
2023-02-13T01:31:52.316Z,17.27
2023-02-13T01:34:39.188Z,14.55
2023-02-13T01:37:25.961Z,16.40
2023-02-13T01:40:14.075Z,16.63
2023-02-13T01:43:05.631Z,14.35
2023-02-13T01:46:01.937Z,15.80
2023-02-13T01:49:02.664Z,16.40
2023-02-13T01:51:53.705Z,15.20
2023-02-13T01:54:40.774Z,15.02
2023-02-13T01:57:29.121Z,16.58
2023-02-13T02:00:16.935Z,15.20
2023-02-13T02:03:14.651Z,15.15
2023-02-13T02:06:01.844Z,15.52
2023-02-13T02:08:51.374Z,17.23
2023-02-13T02:11:55.844Z,15.65
2023-02-13T02:14:45.641Z,16.17
2023-02-13T02:17:32.422Z,16.40
2023-02-13T02:20:28.919Z,18.25
2023-02-13T02:23:15.637Z,17.13
2023-02-13T02:26:28.527Z,17.17
2023-02-13T02:29:25.013Z,17.17
2023-02-13T02:32:27.159Z,18.30
2023-02-13T02:35:16.895Z,18.15
2023-02-13T02:38:33.461Z,17.50
2023-02-13T02:41:59.353Z,20.48
2023-02-13T02:45:05.269Z,18.10
2023-02-13T02:48:35.506Z,18.13
2023-02-13T02:51:32.742Z,20.35
2023-02-13T02:55:05.401Z,20.38
2023-02-13T02:58:22.638Z,20.48
2023-02-13T03:01:34.445Z,18.85
2023-02-13T03:04:47.478Z,19.75
2023-02-13T03:07:41.510Z,20.35
2023-02-13T03:10:53.121Z,18.85
2023-02-13T03:13:50.120Z,20.88
2023-02-13T03:17:00.568Z,18.58
2023-02-13T03:20:27.982Z,21.33
2023-02-13T03:23:46.310Z,19.08
2023-02-13T03:26:50.812Z,22.92
2023-02-13T03:30:11.424Z,20.58
2023-02-13T03:33:20.720Z,20.13
2023-02-13T03:36:35.355Z,19.67
2023-02-13T03:39:31.116Z,20.60
2023-02-13T03:42:36.411Z,20.52
2023-02-13T03:45:49.261Z,21.00
2023-02-13T03:49:04.543Z,21.23
2023-02-13T03:52:05.492Z,22.13
2023-02-13T03:55:21.815Z,21.00
2023-02-13T03:58:33.401Z,23.25
2023-02-13T04:01:23.090Z,20.58
2023-02-13T04:04:23.096Z,24.20
2023-02-13T04:07:12.603Z,22.35
2023-02-13T04:10:06.734Z,19.88
2023-02-13T04:13:21.271Z,20.52
2023-02-13T04:16:25.074Z,21.73
2023-02-13T04:19:12.181Z,21.85
2023-02-13T04:22:01.183Z,22.17
2023-02-13T04:24:50.812Z,23.02
2023-02-13T04:27:37.784Z,21.85
2023-02-13T04:30:24.729Z,21.35
2023-02-13T04:33:14.550Z,21.05
2023-02-13T04:36:04.146Z,21.55
2023-02-13T04:39:08.752Z,22.75
2023-02-13T04:41:55.742Z,21.23
2023-02-13T04:44:45.039Z,22.00
2023-02-13T04:50:23.049Z,22.08
2023-02-13T04:53:09.980Z,21.48
2023-02-13T04:55:56.811Z,20.23
2023-02-13T04:58:56.617Z,18.92
2023-02-13T05:01:48.463Z,19.95
2023-02-13T05:04:35.291Z,21.58
2023-02-13T05:07:22.112Z,20.67
2023-02-13T05:10:12.968Z,20.88
2023-02-13T05:13:00.784Z,20.75
2023-02-13T05:15:52.668Z,21.17
2023-02-13T05:18:41.793Z,19.40
2023-02-13T05:21:52.377Z,19.25
2023-02-13T05:24:39.193Z,20.65
2023-02-13T05:27:35.132Z,22.05
2023-02-13T05:30:29.522Z,19.40
2023-02-13T05:33:16.295Z,20.92
2023-02-13T05:36:03.100Z,18.77
2023-02-13T05:38:49.853Z,22.90
2023-02-13T05:41:36.804Z,18.58
2023-02-13T05:44:23.589Z,20.42
2023-02-13T05:47:10.398Z,20.67
2023-02-13T05:49:57.218Z,22.10
2023-02-13T05:52:44.004Z,21.85
2023-02-13T05:55:33.541Z,19.38
2023-02-13T05:58:23.606Z,21.15
2023-02-13T06:01:10.854Z,19.80
2023-02-13T06:04:06.796Z,18.33
2023-02-13T06:06:56.128Z,19.88
2023-02-13T06:12:29.695Z,21.10
2023-02-13T06:15:16.542Z,20.70
2023-02-13T06:18:06.142Z,19.27
2023-02-13T06:20:52.925Z,18.65
2023-02-13T06:23:42.996Z,20.95
2023-02-13T06:26:29.839Z,18.83
2023-02-13T06:29:16.611Z,19.38
2023-02-13T06:32:03.554Z,19.70
2023-02-13T06:34:57.691Z,21.73
2023-02-13T06:37:44.731Z,18.75
2023-02-13T06:40:31.558Z,21.88
2023-02-13T06:43:18.574Z,21.65
2023-02-13T06:46:11.376Z,20.30
2023-02-13T06:48:58.188Z,21.48
2023-02-13T06:51:47.912Z,20.17
2023-02-13T06:54:46.680Z,19.30
2023-02-13T06:57:34.637Z,17.15
2023-02-13T07:00:21.930Z,19.95
2023-02-13T07:03:09.951Z,20.38
2023-02-13T07:05:56.870Z,20.27
2023-02-13T07:08:43.647Z,17.92
2023-02-13T07:11:30.409Z,19.20
2023-02-13T07:14:17.189Z,20.05
2023-02-13T07:17:04.057Z,19.50
2023-02-13T07:19:51.006Z,18.63
2023-02-13T07:22:37.795Z,19.63
2023-02-13T07:25:24.605Z,19.05
2023-02-13T07:28:11.397Z,17.83
2023-02-13T07:30:58.503Z,18.40
2023-02-13T07:33:49.124Z,17.73
2023-02-13T07:36:35.896Z,19.88
2023-02-13T07:39:22.720Z,19.77
2023-02-13T07:42:09.490Z,17.55
2023-02-13T07:44:56.255Z,18.50
2023-02-13T07:47:45.392Z,19.77
2023-02-13T07:50:35.891Z,18.30
2023-02-13T07:53:22.710Z,18.05
2023-02-13T07:56:12.695Z,19.30
2023-02-13T07:59:01.604Z,17.50
2023-02-13T08:01:48.462Z,16.58
2023-02-13T08:04:35.355Z,19.20
2023-02-13T08:07:22.162Z,16.17
2023-02-13T08:10:28.237Z,18.60
2023-02-13T08:13:15.589Z,18.52
2023-02-13T08:16:02.525Z,17.30
2023-02-13T08:18:52.136Z,19.08
2023-02-13T08:21:40.575Z,17.33
2023-02-13T08:24:27.454Z,17.73
2023-02-13T08:27:17.536Z,17.20
2023-02-13T08:30:05.800Z,16.08
2023-02-13T08:32:54.503Z,18.80
2023-02-13T08:35:41.467Z,16.52
2023-02-13T08:38:31.050Z,17.50
2023-02-13T08:41:19.123Z,15.73
2023-02-13T08:44:06.017Z,16.38
2023-02-13T08:46:53.041Z,16.80
2023-02-13T08:49:43.014Z,15.35
2023-02-13T08:52:29.869Z,16.55
2023-02-13T08:55:16.907Z,16.77
2023-02-13T08:58:04.738Z,16.88
2023-02-13T09:00:51.839Z,14.98
2023-02-13T09:03:38.763Z,15.73
2023-02-13T09:06:28.904Z,14.93
2023-02-13T09:09:16.107Z,16.33
2023-02-13T09:12:05.543Z,15.45
2023-02-13T09:14:52.372Z,17.33
2023-02-13T09:17:42.248Z,15.35
2023-02-13T09:20:31.827Z,15.95
2023-02-13T09:23:18.593Z,14.98
2023-02-13T09:26:07.358Z,14.23
2023-02-13T09:28:54.141Z,14.07
2023-02-13T09:31:41.081Z,13.55
2023-02-13T09:34:28.072Z,14.13
2023-02-13T09:37:15.018Z,14.38
2023-02-13T09:40:04.527Z,14.45
2023-02-13T09:42:52.524Z,14.95
2023-02-13T09:45:45.722Z,14.60
2023-02-13T09:48:37.538Z,13.73
2023-02-13T09:51:25.719Z,13.80
2023-02-13T09:54:15.898Z,12.27
2023-02-13T09:57:08.734Z,13.82
2023-02-13T10:00:13.200Z,13.15
2023-02-13T10:03:01.125Z,13.43
2023-02-13T10:05:57.611Z,13.32
2023-02-13T10:09:22.578Z,13.02
2023-02-13T10:12:24.569Z,12.95
2023-02-13T10:15:14.037Z,12.98
2023-02-13T10:18:06.681Z,14.02
2023-02-13T10:20:56.562Z,13.48
2023-02-13T10:24:13.208Z,13.00
2023-02-13T10:27:09.424Z,14.43
2023-02-13T10:30:06.985Z,10.90
2023-02-13T10:33:19.830Z,13.65
2023-02-13T10:36:12.692Z,12.48
2023-02-13T10:39:19.606Z,13.63
2023-02-13T10:42:22.947Z,12.65
2023-02-13T10:45:47.379Z,12.95
2023-02-13T10:48:40.671Z,11.65
2023-02-13T10:51:35.834Z,12.13
2023-02-13T10:54:52.514Z,12.57
2023-02-13T10:57:54.474Z,12.50
2023-02-13T11:00:57.492Z,13.65
2023-02-13T11:03:47.793Z,13.27
2023-02-13T11:06:37.810Z,13.98
2023-02-13T11:09:24.898Z,13.45
2023-02-13T11:12:28.848Z,14.38
2023-02-13T11:15:29.338Z,14.25
2023-02-13T11:18:20.041Z,13.27
2023-02-13T11:21:10.093Z,13.80
2023-02-13T11:23:57.893Z,13.23
2023-02-13T11:26:44.938Z,12.30
2023-02-13T11:29:33.945Z,14.38
2023-02-13T11:32:23.706Z,13.60
2023-02-13T11:35:30.057Z,12.98
2023-02-13T11:38:18.089Z,12.65
2023-02-13T11:41:13.343Z,12.48
2023-02-13T11:44:01.937Z,13.57
2023-02-13T11:46:56.932Z,11.88
2023-02-13T11:49:47.379Z,13.48
2023-02-13T11:52:35.486Z,11.88
2023-02-13T11:55:28.741Z,12.32
2023-02-13T11:58:15.543Z,12.15
2023-02-13T12:01:19.926Z,14.18
2023-02-13T12:04:18.934Z,14.15
2023-02-13T12:07:28.158Z,12.02
2023-02-13T12:13:13.295Z,11.93
2023-02-13T12:16:05.915Z,13.47
2023-02-13T12:18:54.475Z,12.57
2023-02-13T12:22:07.159Z,11.80
2023-02-13T12:25:38.483Z,12.55
2023-02-13T12:28:43.284Z,13.77
2023-02-13T12:31:39.639Z,12.40
2023-02-13T12:35:02.052Z,11.65
2023-02-13T12:37:56.855Z,12.15
2023-02-13T12:41:05.405Z,10.45
2023-02-13T12:44:05.504Z,11.73
2023-02-13T12:47:11.614Z,10.43
2023-02-13T12:50:29.069Z,11.00
2023-02-13T12:53:29.741Z,9.90
2023-02-13T12:56:35.545Z,10.23
2023-02-13T12:59:34.213Z,11.10
2023-02-13T13:02:54.874Z,9.70
2023-02-13T13:06:11.639Z,8.63
2023-02-13T13:09:12.330Z,9.40
2023-02-13T13:12:31.817Z,9.80
2023-02-13T13:15:59.353Z,10.07
2023-02-13T13:18:59.447Z,10.00
2023-02-13T13:21:53.386Z,8.63
2023-02-13T13:24:59.417Z,9.27
2023-02-13T13:27:49.213Z,8.57
2023-02-13T13:30:37.549Z,8.65
2023-02-13T13:33:26.460Z,9.15
2023-02-13T13:36:41.161Z,8.25
2023-02-13T13:39:46.870Z,8.38
2023-02-13T13:42:47.889Z,8.73
2023-02-13T13:45:47.581Z,9.25
2023-02-13T13:49:00.478Z,10.18
2023-02-13T13:51:47.324Z,9.27
2023-02-13T13:54:35.478Z,10.05
2023-02-13T13:57:41.594Z,9.13
2023-02-13T14:00:30.601Z,9.48
2023-02-13T14:03:35.571Z,8.40
2023-02-13T14:06:24.245Z,9.80
2023-02-13T14:09:40.629Z,8.40
2023-02-13T14:12:30.630Z,9.93
2023-02-13T14:15:37.590Z,9.32
2023-02-13T14:18:25.580Z,9.70
2023-02-13T14:21:14.673Z,8.88
2023-02-13T14:24:04.018Z,8.85
2023-02-13T14:29:52.321Z,9.82
2023-02-13T14:32:41.090Z,8.95
2023-02-13T14:35:34.858Z,9.10
2023-02-13T14:38:24.197Z,9.55
2023-02-13T14:41:46.430Z,9.63
2023-02-13T14:44:53.521Z,9.38
2023-02-13T14:47:53.425Z,9.20
2023-02-13T14:50:44.135Z,10.20
2023-02-13T14:53:35.271Z,9.20
2023-02-13T14:56:24.862Z,8.75
2023-02-13T14:59:32.570Z,9.15
2023-02-13T15:02:28.525Z,9.35
2023-02-13T15:05:20.125Z,8.90
2023-02-13T15:08:13.697Z,9.93
2023-02-13T15:11:00.793Z,9.65
2023-02-13T15:13:47.688Z,10.25
2023-02-13T15:16:34.476Z,9.70
2023-02-13T15:19:22.061Z,10.20
2023-02-13T15:22:18.392Z,9.75
2023-02-13T15:25:07.804Z,10.32
2023-02-13T15:27:54.794Z,9.48
2023-02-13T15:30:41.567Z,10.45
2023-02-13T15:33:32.631Z,9.00
2023-02-13T15:36:25.825Z,9.05
2023-02-13T15:39:18.477Z,9.70
2023-02-13T15:42:05.266Z,9.45
2023-02-13T15:44:54.337Z,10.10
2023-02-13T15:47:41.132Z,10.68
2023-02-13T15:50:37.195Z,11.15
2023-02-13T15:53:23.972Z,10.18
2023-02-13T15:56:14.239Z,10.07
2023-02-13T15:59:01.428Z,10.25
2023-02-13T16:01:50.751Z,10.88
2023-02-13T16:04:38.010Z,11.27
2023-02-13T16:07:24.824Z,10.80
2023-02-13T16:10:26.379Z,10.13
2023-02-13T16:13:17.004Z,10.80
2023-02-13T16:16:09.094Z,10.98
2023-02-13T16:18:58.449Z,11.68
2023-02-13T16:21:48.234Z,10.35
2023-02-13T16:24:36.031Z,11.00
2023-02-13T16:27:26.831Z,10.82
2023-02-13T16:30:41.598Z,10.93
2023-02-13T16:33:33.034Z,11.48
2023-02-13T16:36:35.059Z,11.98
2023-02-13T16:39:27.371Z,11.68
2023-02-13T16:42:19.590Z,11.25
2023-02-13T16:45:24.948Z,10.73
2023-02-13T16:48:15.211Z,10.95
2023-02-13T16:51:11.024Z,11.45
2023-02-13T16:54:03.746Z,11.52
2023-02-13T16:56:54.260Z,11.75
2023-02-13T16:59:47.268Z,11.73
2023-02-13T17:02:37.176Z,12.07
2023-02-13T17:05:27.548Z,11.65
2023-02-13T17:08:14.408Z,10.35
2023-02-13T17:11:06.446Z,12.05
2023-02-13T17:13:53.239Z,11.95
2023-02-13T17:16:40.134Z,10.85
2023-02-13T17:19:29.758Z,10.68
2023-02-13T17:22:30.285Z,11.32
2023-02-13T17:25:22.515Z,11.15
2023-02-13T17:28:09.204Z,11.98
2023-02-13T17:30:59.776Z,11.38
2023-02-13T17:33:46.767Z,11.88
2023-02-13T17:36:33.567Z,11.27
2023-02-13T17:39:20.413Z,11.93
2023-02-13T17:42:12.865Z,11.73
2023-02-13T17:44:59.927Z,11.90
2023-02-13T17:47:49.421Z,11.73
2023-02-13T17:50:36.889Z,12.13
2023-02-13T17:53:26.282Z,12.75
2023-02-13T17:56:13.083Z,11.75
2023-02-13T17:59:02.841Z,13.98
2023-02-13T18:01:49.614Z,11.27
2023-02-13T18:04:36.442Z,12.30
2023-02-13T18:07:23.251Z,12.27
2023-02-13T18:10:36.693Z,12.23
2023-02-13T18:13:26.461Z,11.57
2023-02-13T18:16:13.758Z,11.75
2023-02-13T18:19:00.562Z,11.30
2023-02-13T18:21:47.373Z,12.43
2023-02-13T18:24:35.932Z,11.55
2023-02-13T18:27:25.242Z,12.60
2023-02-13T18:30:15.278Z,11.70
2023-02-13T18:33:04.982Z,11.93
2023-02-13T18:35:51.803Z,11.10
2023-02-13T18:38:38.713Z,11.90
2023-02-13T18:41:25.606Z,13.40
2023-02-13T18:44:17.320Z,11.82
2023-02-13T18:47:10.363Z,11.32
2023-02-13T18:49:57.170Z,11.45
2023-02-13T18:52:44.090Z,11.68
2023-02-13T18:55:33.622Z,11.23
2023-02-13T18:58:20.400Z,11.98
2023-02-13T19:01:07.978Z,11.52
2023-02-13T19:03:54.819Z,11.20
2023-02-13T19:06:43.282Z,10.90
2023-02-13T19:09:30.062Z,11.68
2023-02-13T19:12:16.861Z,12.05
2023-02-13T19:15:04.969Z,12.45
2023-02-13T19:17:54.074Z,12.23
2023-02-13T19:20:41.359Z,13.25
2023-02-13T19:23:28.162Z,12.10
2023-02-13T19:26:17.461Z,11.27
2023-02-13T19:31:51.046Z,12.35
2023-02-13T19:34:37.912Z,11.23
2023-02-13T19:37:26.721Z,11.85
2023-02-13T19:40:15.341Z,11.23
2023-02-13T19:43:02.111Z,12.85
2023-02-13T19:45:49.640Z,11.60
2023-02-13T19:48:37.120Z,11.85
2023-02-13T19:51:25.904Z,12.32
2023-02-13T19:54:13.000Z,11.35
2023-02-13T19:57:04.999Z,12.00
2023-02-13T19:59:51.789Z,12.38
2023-02-13T20:02:39.578Z,12.43
2023-02-13T20:05:26.400Z,11.60
2023-02-13T20:08:13.285Z,13.55
2023-02-13T20:11:02.044Z,11.95
2023-02-13T20:13:48.980Z,12.82
2023-02-13T20:16:36.829Z,12.35
2023-02-13T20:19:23.826Z,11.85
2023-02-13T20:22:10.627Z,12.05
2023-02-13T20:24:57.392Z,11.75
2023-02-13T20:27:45.033Z,13.07
2023-02-13T20:30:31.951Z,12.55
2023-02-13T20:33:18.785Z,12.43
2023-02-13T20:36:14.080Z,14.52
2023-02-13T20:39:03.514Z,11.82
2023-02-13T20:41:50.535Z,13.27
2023-02-13T20:44:37.371Z,12.95
2023-02-13T20:47:24.187Z,13.00
2023-02-13T20:50:11.093Z,13.25
2023-02-13T20:52:58.580Z,12.90
2023-02-13T20:55:45.385Z,12.73
2023-02-13T20:58:35.335Z,13.82
2023-02-13T21:01:25.216Z,13.63
2023-02-13T21:04:14.634Z,13.43
2023-02-13T21:07:01.518Z,13.13
2023-02-13T21:09:48.347Z,14.70
2023-02-13T21:12:35.381Z,12.85
2023-02-13T21:15:22.511Z,14.13
2023-02-13T21:18:09.451Z,13.30
2023-02-13T21:20:57.421Z,13.82
2023-02-13T21:23:44.605Z,12.80
2023-02-13T21:26:31.784Z,12.90
2023-02-13T21:29:18.925Z,13.82
2023-02-13T21:32:05.830Z,13.40
2023-02-13T21:34:55.401Z,12.52
2023-02-13T21:37:42.198Z,13.63
2023-02-13T21:40:28.974Z,14.35
2023-02-13T21:43:15.773Z,13.52
2023-02-13T21:46:13.960Z,12.85
2023-02-13T21:49:02.765Z,14.95
2023-02-13T21:51:49.547Z,13.88
2023-02-13T21:54:36.423Z,14.80
2023-02-13T21:57:23.233Z,13.95
2023-02-13T22:00:10.719Z,14.77
2023-02-13T22:02:57.601Z,12.88
2023-02-13T22:05:47.946Z,12.90
2023-02-13T22:08:34.873Z,13.75
2023-02-13T22:11:21.698Z,13.88
2023-02-13T22:14:12.213Z,13.95
2023-02-13T22:16:59.013Z,15.25
2023-02-13T22:19:48.834Z,14.93
2023-02-13T22:22:35.587Z,12.95
2023-02-13T22:25:22.535Z,14.15
2023-02-13T22:28:09.290Z,13.48
2023-02-13T22:30:56.359Z,14.30
2023-02-13T22:33:47.464Z,14.60
2023-02-13T22:36:40.843Z,13.55
2023-02-13T22:39:27.713Z,14.73
2023-02-13T22:42:14.520Z,14.23
2023-02-13T22:45:01.339Z,15.32
2023-02-13T22:47:48.099Z,15.00
2023-02-13T22:50:35.106Z,14.13
2023-02-13T22:53:21.861Z,14.15
2023-02-13T22:56:09.452Z,14.63
2023-02-13T22:58:59.779Z,14.27
2023-02-13T23:01:46.696Z,16.30
2023-02-13T23:04:33.548Z,16.98
2023-02-13T23:07:20.362Z,16.17
2023-02-13T23:10:07.552Z,14.73
2023-02-13T23:12:54.343Z,15.57
2023-02-13T23:15:41.235Z,14.30
2023-02-13T23:18:28.049Z,14.32
2023-02-13T23:21:15.226Z,15.48
2023-02-13T23:24:02.001Z,15.77
2023-02-13T23:26:48.798Z,16.48
2023-02-13T23:29:35.645Z,14.88
2023-02-13T23:32:22.408Z,14.57
2023-02-13T23:35:09.687Z,15.60
2023-02-13T23:37:56.548Z,15.95
2023-02-13T23:40:43.376Z,15.70
2023-02-13T23:43:30.163Z,15.80
2023-02-13T23:46:17.038Z,18.42
2023-02-13T23:49:05.522Z,17.05
2023-02-13T23:51:53.431Z,16.27
2023-02-13T23:54:40.224Z,17.80
2023-02-13T23:57:27.031Z,16.30
